Alkali Lake, Canada
Current Conditions -  °F | °C
As of 2:00 PM on Monday 26 Jan 2015 (Local Time) from CYWL Reporting Station
Overcast Overcast  
Wind Chill: 38°   Ceiling: 12000
Heat Index: 43°   Visibility: 15mi
Dew Point: 30°   Wind: 8mph
Humidity: 61%   Direction: 120°ESE
Pressure: 29.74"   Gusts: NA
Location:  51.77°N, 122.3°W
Report Text: CYWL 262200Z 12007KT 15SM OVC120 06/M01 A2974 RMK AC8 SLP091
Loading
Personal Weather Stations






























Interactive Weather Map New forecast layout! Learn more

10-Day Weather Forecast

Advertisements
Track Severe Weather on mobile